sensor_id;sensor_type;location;lat;lon;timestamp;P1;durP1;ratioP1;P2;durP2;ratioP2
6902;SDS011;20232;49.408;8.702;2023-09-19T04:02:05;3.27;;;2.10;;
6902;SDS011;20232;49.408;8.702;2023-09-19T04:04:36;4.17;;;2.43;;
6902;SDS011;20232;49.408;8.702;2023-09-19T04:07:02;3.60;;;2.10;;
6902;SDS011;20232;49.408;8.702;2023-09-19T04:09:27;4.97;;;2.00;;
6902;SDS011;20232;49.408;8.702;2023-09-19T04:11:53;3.13;;;2.17;;
6902;SDS011;20232;49.408;8.702;2023-09-19T04:14:18;4.23;;;2.20;;
6902;SDS011;20232;49.408;8.702;2023-09-19T04:16:44;4.27;;;2.43;;
6902;SDS011;20232;49.408;8.702;2023-09-19T04:19:10;4.97;;;2.00;;
6902;SDS011;20232;49.408;8.702;2023-09-19T04:21:35;3.00;;;2.00;;
6902;SDS011;20232;49.408;8.702;2023-09-19T04:24:01;4.80;;;2.40;;
6902;SDS011;20232;49.408;8.702;2023-09-19T04:26:26;4.57;;;2.37;;
6902;SDS011;20232;49.408;8.702;2023-09-19T04:28:51;3.97;;;2.23;;
6902;SDS011;20232;49.408;8.702;2023-09-19T04:31:17;7.27;;;2.30;;
6902;SDS011;20232;49.408;8.702;2023-09-19T04:33:43;4.33;;;2.43;;
6902;SDS011;20232;49.408;8.702;2023-09-19T04:36:09;5.10;;;2.30;;
6902;SDS011;20232;49.408;8.702;2023-09-19T04:38:35;4.10;;;2.53;;
6902;SDS011;20232;49.408;8.702;2023-09-19T04:41:00;4.30;;;2.57;;
6902;SDS011;20232;49.408;8.702;2023-09-19T04:43:26;4.50;;;2.30;;
6902;SDS011;20232;49.408;8.702;2023-09-19T04:45:51;7.70;;;2.93;;
6902;SDS011;20232;49.408;8.702;2023-09-19T04:48:21;3.63;;;2.27;;
6902;SDS011;20232;49.408;8.702;2023-09-19T04:50:49;5.13;;;2.70;;
6902;SDS011;20232;49.408;8.702;2023-09-19T04:53:14;5.57;;;2.80;;
6902;SDS011;20232;49.408;8.702;2023-09-19T04:55:40;5.07;;;2.60;;
6902;SDS011;20232;49.408;8.702;2023-09-19T04:58:05;5.70;;;2.60;;
6902;SDS011;20232;49.408;8.702;2023-09-19T05:00:30;5.57;;;2.90;;
6902;SDS011;20232;49.408;8.702;2023-09-19T05:03:00;3.83;;;2.57;;
6902;SDS011;20232;49.408;8.702;2023-09-19T05:05:25;4.83;;;2.40;;
6902;SDS011;20232;49.408;8.702;2023-09-19T05:07:51;3.67;;;2.80;;
6902;SDS011;20232;49.408;8.702;2023-09-19T05:10:18;3.60;;;2.60;;
6902;SDS011;20232;49.408;8.702;2023-09-19T05:12:44;4.07;;;2.50;;
6902;SDS011;20232;49.408;8.702;2023-09-19T05:15:12;4.93;;;2.60;;
6902;SDS011;20232;49.408;8.702;2023-09-19T05:17:37;3.97;;;2.70;;
6902;SDS011;20232;49.408;8.702;2023-09-19T05:20:04;4.80;;;2.80;;
6902;SDS011;20232;49.408;8.702;2023-09-19T05:22:41;3.93;;;2.33;;
6902;SDS011;20232;49.408;8.702;2023-09-19T05:25:08;8.17;;;2.77;;
6902;SDS011;20232;49.408;8.702;2023-09-19T05:27:34;5.37;;;3.00;;
6902;SDS011;20232;49.408;8.702;2023-09-19T05:29:59;5.67;;;2.80;;
6902;SDS011;20232;49.408;8.702;2023-09-19T05:32:25;5.60;;;2.90;;
6902;SDS011;20232;49.408;8.702;2023-09-19T05:34:50;5.80;;;3.20;;
6902;SDS011;20232;49.408;8.702;2023-09-19T05:37:21;6.57;;;3.17;;
6902;SDS011;20232;49.408;8.702;2023-09-19T05:39:48;6.07;;;2.80;;
6902;SDS011;20232;49.408;8.702;2023-09-19T05:42:14;4.73;;;2.80;;
6902;SDS011;20232;49.408;8.702;2023-09-19T05:44:39;5.17;;;2.70;;
6902;SDS011;20232;49.408;8.702;2023-09-19T05:47:05;3.97;;;2.80;;
6902;SDS011;20232;49.408;8.702;2023-09-19T05:49:31;5.13;;;2.70;;
6902;SDS011;20232;49.408;8.702;2023-09-19T05:51:57;5.50;;;2.90;;
6902;SDS011;20232;49.408;8.702;2023-09-19T05:54:24;4.47;;;2.60;;
6902;SDS011;20232;49.408;8.702;2023-09-19T05:56:49;4.70;;;2.90;;
6902;SDS011;20232;49.408;8.702;2023-09-19T05:59:18;7.50;;;2.93;;
6902;SDS011;20232;49.408;8.702;2023-09-19T06:01:44;4.83;;;2.47;;
6902;SDS011;20232;49.408;8.702;2023-09-19T06:04:09;4.67;;;2.50;;
6902;SDS011;20232;49.408;8.702;2023-09-19T06:06:35;3.87;;;2.70;;
6902;SDS011;20232;49.408;8.702;2023-09-19T06:09:04;6.00;;;2.50;;
6902;SDS011;20232;49.408;8.702;2023-09-19T06:11:31;5.90;;;2.80;;
6902;SDS011;20232;49.408;8.702;2023-09-19T06:13:59;6.37;;;2.50;;
6902;SDS011;20232;49.408;8.702;2023-09-19T06:16:27;5.87;;;2.77;;
6902;SDS011;20232;49.408;8.702;2023-09-19T06:18:57;5.43;;;2.60;;
6902;SDS011;20232;49.408;8.702;2023-09-19T06:21:23;6.57;;;2.90;;
6902;SDS011;20232;49.408;8.702;2023-09-19T06:23:49;6.60;;;2.50;;
6902;SDS011;20232;49.408;8.702;2023-09-19T06:26:14;3.80;;;2.20;;
6902;SDS011;20232;49.408;8.702;2023-09-19T06:28:40;4.87;;;2.50;;
6902;SDS011;20232;49.408;8.702;2023-09-19T06:31:06;9.10;;;2.67;;
6902;SDS011;20232;49.408;8.702;2023-09-19T06:33:35;3.93;;;2.40;;
6902;SDS011;20232;49.408;8.702;2023-09-19T06:36:03;6.40;;;2.53;;
6902;SDS011;20232;49.408;8.702;2023-09-19T06:38:29;6.93;;;2.83;;
6902;SDS011;20232;49.408;8.702;2023-09-19T06:40:56;4.63;;;2.40;;
6902;SDS011;20232;49.408;8.702;2023-09-19T06:43:22;3.60;;;2.30;;
6902;SDS011;20232;49.408;8.702;2023-09-19T06:45:48;4.63;;;2.33;;
6902;SDS011;20232;49.408;8.702;2023-09-19T06:48:15;5.90;;;2.77;;
6902;SDS011;20232;49.408;8.702;2023-09-19T06:50:40;4.43;;;2.37;;
6902;SDS011;20232;49.408;8.702;2023-09-19T06:53:06;5.73;;;2.57;;
6902;SDS011;20232;49.408;8.702;2023-09-19T06:55:32;5.37;;;2.23;;
6902;SDS011;20232;49.408;8.702;2023-09-19T06:57:57;6.87;;;2.90;;
6902;SDS011;20232;49.408;8.702;2023-09-19T07:00:23;4.20;;;2.10;;
6902;SDS011;20232;49.408;8.702;2023-09-19T07:02:59;4.70;;;2.40;;
6902;SDS011;20232;49.408;8.702;2023-09-19T07:05:29;6.83;;;2.40;;
6902;SDS011;20232;49.408;8.702;2023-09-19T07:07:56;7.03;;;2.50;;
6902;SDS011;20232;49.408;8.702;2023-09-19T07:10:24;4.40;;;2.30;;
6902;SDS011;20232;49.408;8.702;2023-09-19T07:13:01;4.73;;;2.50;;
6902;SDS011;20232;49.408;8.702;2023-09-19T07:15:28;5.23;;;2.20;;
6902;SDS011;20232;49.408;8.702;2023-09-19T07:18:00;4.97;;;2.30;;
6902;SDS011;20232;49.408;8.702;2023-09-19T07:20:26;4.93;;;2.57;;
6902;SDS011;20232;49.408;8.702;2023-09-19T07:22:52;6.13;;;2.47;;
6902;SDS011;20232;49.408;8.702;2023-09-19T07:25:19;3.63;;;2.07;;
6902;SDS011;20232;49.408;8.702;2023-09-19T07:27:45;4.60;;;2.10;;
6902;SDS011;20232;49.408;8.702;2023-09-19T07:30:11;4.30;;;2.27;;
6902;SDS011;20232;49.408;8.702;2023-09-19T07:32:37;7.07;;;2.13;;
6902;SDS011;20232;49.408;8.702;2023-09-19T07:35:03;7.10;;;1.90;;
6902;SDS011;20232;49.408;8.702;2023-09-19T07:37:30;6.43;;;2.20;;
6902;SDS011;20232;49.408;8.702;2023-09-19T07:39:58;5.73;;;2.10;;
6902;SDS011;20232;49.408;8.702;2023-09-19T07:42:24;5.17;;;2.30;;
6902;SDS011;20232;49.408;8.702;2023-09-19T07:44:50;3.30;;;1.93;;
6902;SDS011;20232;49.408;8.702;2023-09-19T07:47:16;4.70;;;1.90;;
6902;SDS011;20232;49.408;8.702;2023-09-19T07:49:41;4.20;;;1.90;;
6902;SDS011;20232;49.408;8.702;2023-09-19T07:52:08;6.43;;;1.90;;
6902;SDS011;20232;49.408;8.702;2023-09-19T07:54:34;2.93;;;1.77;;
6902;SDS011;20232;49.408;8.702;2023-09-19T07:57:01;5.53;;;1.90;;
6902;SDS011;20232;49.408;8.702;2023-09-19T07:59:27;6.50;;;2.37;;
6902;SDS011;20232;49.408;8.702;2023-09-19T08:01:53;6.33;;;2.07;;
6902;SDS011;20232;49.408;8.702;2023-09-19T08:04:18;4.23;;;1.93;;
6902;SDS011;20232;49.408;8.702;2023-09-19T08:06:44;4.17;;;1.93;;
6902;SDS011;20232;49.408;8.702;2023-09-19T08:09:10;4.87;;;2.00;;
6902;SDS011;20232;49.408;8.702;2023-09-19T08:11:36;3.87;;;2.33;;
6902;SDS011;20232;49.408;8.702;2023-09-19T08:14:02;5.80;;;1.67;;
6902;SDS011;20232;49.408;8.702;2023-09-19T08:16:27;3.77;;;1.80;;
6902;SDS011;20232;49.408;8.702;2023-09-19T08:18:53;3.63;;;1.90;;
6902;SDS011;20232;49.408;8.702;2023-09-19T08:21:20;5.63;;;1.80;;
6902;SDS011;20232;49.408;8.702;2023-09-19T08:23:49;6.90;;;2.10;;
6902;SDS011;20232;49.408;8.702;2023-09-19T08:26:15;4.93;;;1.90;;
6902;SDS011;20232;49.408;8.702;2023-09-19T08:28:40;6.03;;;1.70;;
6902;SDS011;20232;49.408;8.702;2023-09-19T08:31:07;3.07;;;1.77;;
6902;SDS011;20232;49.408;8.702;2023-09-19T08:33:33;3.67;;;1.83;;
6902;SDS011;20232;49.408;8.702;2023-09-19T08:36:00;3.27;;;1.90;;
6902;SDS011;20232;49.408;8.702;2023-09-19T08:38:30;4.27;;;1.93;;
6902;SDS011;20232;49.408;8.702;2023-09-19T08:41:04;4.97;;;2.03;;
6902;SDS011;20232;49.408;8.702;2023-09-19T08:43:35;5.93;;;2.00;;
6902;SDS011;20232;49.408;8.702;2023-09-19T08:46:10;2.57;;;1.73;;
6902;SDS011;20232;49.408;8.702;2023-09-19T08:48:45;3.80;;;1.90;;
6902;SDS011;20232;49.408;8.702;2023-09-19T08:51:18;3.57;;;1.63;;
6902;SDS011;20232;49.408;8.702;2023-09-19T08:56:36;3.87;;;1.83;;
6902;SDS011;20232;49.408;8.702;2023-09-19T08:59:04;4.43;;;1.73;;
6902;SDS011;20232;49.408;8.702;2023-09-19T09:01:32;4.53;;;1.70;;
6902;SDS011;20232;49.408;8.702;2023-09-19T09:03:58;5.07;;;1.80;;
6902;SDS011;20232;49.408;8.702;2023-09-19T09:06:24;5.77;;;1.63;;
6902;SDS011;20232;49.408;8.702;2023-09-19T09:08:51;4.70;;;1.80;;
6902;SDS011;20232;49.408;8.702;2023-09-19T09:11:20;3.47;;;1.93;;
6902;SDS011;20232;49.408;8.702;2023-09-19T09:13:46;3.23;;;1.53;;
6902;SDS011;20232;49.408;8.702;2023-09-19T09:16:12;5.37;;;2.10;;
6902;SDS011;20232;49.408;8.702;2023-09-19T09:18:42;3.73;;;1.80;;
6902;SDS011;20232;49.408;8.702;2023-09-19T09:21:09;5.30;;;1.73;;
6902;SDS011;20232;49.408;8.702;2023-09-19T09:23:35;5.37;;;1.90;;
6902;SDS011;20232;49.408;8.702;2023-09-19T09:26:00;4.47;;;1.83;;
6902;SDS011;20232;49.408;8.702;2023-09-19T09:28:31;3.50;;;1.60;;
6902;SDS011;20232;49.408;8.702;2023-09-19T09:30:58;6.77;;;2.10;;
6902;SDS011;20232;49.408;8.702;2023-09-19T09:33:24;5.80;;;1.87;;
6902;SDS011;20232;49.408;8.702;2023-09-19T09:35:53;4.23;;;1.73;;
6902;SDS011;20232;49.408;8.702;2023-09-19T09:38:23;4.00;;;1.87;;
6902;SDS011;20232;49.408;8.702;2023-09-19T09:40:59;3.73;;;1.73;;
6902;SDS011;20232;49.408;8.702;2023-09-19T09:43:30;9.33;;;2.03;;
6902;SDS011;20232;49.408;8.702;2023-09-19T09:46:38;4.57;;;1.73;;
6902;SDS011;20232;49.408;8.702;2023-09-19T09:49:23;4.43;;;1.60;;
6902;SDS011;20232;49.408;8.702;2023-09-19T09:52:05;5.63;;;1.90;;
6902;SDS011;20232;49.408;8.702;2023-09-19T09:54:57;6.20;;;1.97;;
6902;SDS011;20232;49.408;8.702;2023-09-19T09:57:30;4.50;;;2.10;;
6902;SDS011;20232;49.408;8.702;2023-09-19T09:59:56;6.73;;;1.70;;
6902;SDS011;20232;49.408;8.702;2023-09-19T10:02:38;7.93;;;2.07;;
6902;SDS011;20232;49.408;8.702;2023-09-19T10:05:11;2.77;;;1.57;;
6902;SDS011;20232;49.408;8.702;2023-09-19T10:07:47;4.43;;;1.80;;
6902;SDS011;20232;49.408;8.702;2023-09-19T10:10:30;5.33;;;1.97;;
6902;SDS011;20232;49.408;8.702;2023-09-19T10:13:11;9.20;;;2.00;;
6902;SDS011;20232;49.408;8.702;2023-09-19T10:15:39;4.27;;;1.87;;
6902;SDS011;20232;49.408;8.702;2023-09-19T10:18:07;5.13;;;2.00;;
6902;SDS011;20232;49.408;8.702;2023-09-19T10:20:36;4.20;;;1.50;;
6902;SDS011;20232;49.408;8.702;2023-09-19T10:23:05;6.03;;;2.00;;
6902;SDS011;20232;49.408;8.702;2023-09-19T10:25:36;3.37;;;1.70;;
6902;SDS011;20232;49.408;8.702;2023-09-19T10:28:02;4.37;;;1.53;;
6902;SDS011;20232;49.408;8.702;2023-09-19T10:30:35;5.33;;;1.90;;
6902;SDS011;20232;49.408;8.702;2023-09-19T10:33:04;4.37;;;1.70;;
6902;SDS011;20232;49.408;8.702;2023-09-19T10:35:32;3.00;;;1.80;;
6902;SDS011;20232;49.408;8.702;2023-09-19T10:38:01;5.63;;;2.13;;
6902;SDS011;20232;49.408;8.702;2023-09-19T10:40:28;3.00;;;1.57;;
6902;SDS011;20232;49.408;8.702;2023-09-19T10:43:00;3.37;;;1.70;;
6902;SDS011;20232;49.408;8.702;2023-09-19T10:45:28;5.10;;;1.50;;
6902;SDS011;20232;49.408;8.702;2023-09-19T10:47:54;3.83;;;1.73;;
6902;SDS011;20232;49.408;8.702;2023-09-19T10:50:21;6.90;;;1.70;;
6902;SDS011;20232;49.408;8.702;2023-09-19T10:52:47;2.43;;;1.57;;
6902;SDS011;20232;49.408;8.702;2023-09-19T10:55:18;4.90;;;1.70;;
6902;SDS011;20232;49.408;8.702;2023-09-19T10:57:44;6.87;;;2.27;;
6902;SDS011;20232;49.408;8.702;2023-09-19T11:00:12;5.07;;;2.03;;
6902;SDS011;20232;49.408;8.702;2023-09-19T11:05:41;1.90;;;1.23;;
6902;SDS011;20232;49.408;8.702;2023-09-19T11:08:07;3.80;;;1.83;;
6902;SDS011;20232;49.408;8.702;2023-09-19T11:10:49;3.83;;;1.97;;
6902;SDS011;20232;49.408;8.702;2023-09-19T11:13:29;2.43;;;1.50;;
6902;SDS011;20232;49.408;8.702;2023-09-19T11:16:02;2.30;;;1.70;;
6902;SDS011;20232;49.408;8.702;2023-09-19T11:26:43;4.53;;;2.00;;
6902;SDS011;20232;49.408;8.702;2023-09-19T11:31:51;2.90;;;1.70;;
6902;SDS011;20232;49.408;8.702;2023-09-19T11:37:01;4.93;;;1.73;;
6902;SDS011;20232;49.408;8.702;2023-09-19T11:39:29;2.40;;;1.50;;
6902;SDS011;20232;49.408;8.702;2023-09-19T11:41:55;2.00;;;1.50;;
6902;SDS011;20232;49.408;8.702;2023-09-19T11:49:31;3.80;;;1.93;;
6902;SDS011;20232;49.408;8.702;2023-09-19T11:51:58;2.13;;;1.60;;
6902;SDS011;20232;49.408;8.702;2023-09-19T11:54:30;5.67;;;2.03;;
6902;SDS011;20232;49.408;8.702;2023-09-19T11:56:59;4.37;;;1.87;;
6902;SDS011;20232;49.408;8.702;2023-09-19T12:02:03;5.37;;;1.77;;
6902;SDS011;20232;49.408;8.702;2023-09-19T12:04:36;3.30;;;1.50;;
6902;SDS011;20232;49.408;8.702;2023-09-19T12:07:14;4.33;;;1.93;;
6902;SDS011;20232;49.408;8.702;2023-09-19T12:10:02;2.63;;;1.37;;
6902;SDS011;20232;49.408;8.702;2023-09-19T12:12:29;3.40;;;1.80;;
6902;SDS011;20232;49.408;8.702;2023-09-19T12:14:55;3.67;;;1.70;;
6902;SDS011;20232;49.408;8.702;2023-09-19T12:17:23;2.87;;;1.50;;
6902;SDS011;20232;49.408;8.702;2023-09-19T12:19:56;2.40;;;1.60;;
6902;SDS011;20232;49.408;8.702;2023-09-19T12:22:21;2.80;;;1.40;;
6902;SDS011;20232;49.408;8.702;2023-09-19T12:24:47;3.23;;;1.90;;
6902;SDS011;20232;49.408;8.702;2023-09-19T12:27:13;4.03;;;1.40;;
6902;SDS011;20232;49.408;8.702;2023-09-19T12:29:45;4.13;;;1.87;;
6902;SDS011;20232;49.408;8.702;2023-09-19T12:32:11;5.30;;;1.60;;
6902;SDS011;20232;49.408;8.702;2023-09-19T12:34:38;4.70;;;1.60;;
6902;SDS011;20232;49.408;8.702;2023-09-19T12:37:08;2.30;;;1.60;;
6902;SDS011;20232;49.408;8.702;2023-09-19T12:39:41;4.13;;;1.80;;
6902;SDS011;20232;49.408;8.702;2023-09-19T12:42:12;3.93;;;1.70;;
6902;SDS011;20232;49.408;8.702;2023-09-19T12:44:41;4.77;;;1.50;;
6902;SDS011;20232;49.408;8.702;2023-09-19T12:47:12;3.97;;;1.50;;
6902;SDS011;20232;49.408;8.702;2023-09-19T12:52:39;4.27;;;1.70;;
6902;SDS011;20232;49.408;8.702;2023-09-19T12:55:06;4.07;;;1.70;;
6902;SDS011;20232;49.408;8.702;2023-09-19T12:57:35;2.57;;;1.60;;
6902;SDS011;20232;49.408;8.702;2023-09-19T13:00:01;4.70;;;1.60;;
6902;SDS011;20232;49.408;8.702;2023-09-19T13:02:27;4.57;;;1.50;;
6902;SDS011;20232;49.408;8.702;2023-09-19T13:04:54;6.87;;;1.90;;
6902;SDS011;20232;49.408;8.702;2023-09-19T13:07:40;2.33;;;1.60;;
6902;SDS011;20232;49.408;8.702;2023-09-19T13:10:09;3.40;;;1.63;;
6902;SDS011;20232;49.408;8.702;2023-09-19T13:12:35;2.43;;;1.50;;
6902;SDS011;20232;49.408;8.702;2023-09-19T13:15:09;5.03;;;1.43;;
6902;SDS011;20232;49.408;8.702;2023-09-19T13:17:44;3.87;;;1.60;;
6902;SDS011;20232;49.408;8.702;2023-09-19T13:20:26;4.10;;;1.70;;
6902;SDS011;20232;49.408;8.702;2023-09-19T13:22:57;3.07;;;1.53;;
6902;SDS011;20232;49.408;8.702;2023-09-19T13:25:31;5.50;;;1.50;;
6902;SDS011;20232;49.408;8.702;2023-09-19T13:27:58;4.20;;;1.67;;
6902;SDS011;20232;49.408;8.702;2023-09-19T13:30:25;2.93;;;1.70;;
6902;SDS011;20232;49.408;8.702;2023-09-19T13:32:52;2.57;;;1.60;;
6902;SDS011;20232;49.408;8.702;2023-09-19T13:35:19;5.30;;;1.57;;
6902;SDS011;20232;49.408;8.702;2023-09-19T13:37:45;2.37;;;1.57;;
6902;SDS011;20232;49.408;8.702;2023-09-19T13:40:16;2.47;;;1.70;;
6902;SDS011;20232;49.408;8.702;2023-09-19T13:42:42;2.10;;;1.40;;
6902;SDS011;20232;49.408;8.702;2023-09-19T13:45:07;3.20;;;1.40;;
6902;SDS011;20232;49.408;8.702;2023-09-19T13:47:37;2.50;;;1.50;;
6902;SDS011;20232;49.408;8.702;2023-09-19T13:50:03;2.10;;;1.50;;
6902;SDS011;20232;49.408;8.702;2023-09-19T13:52:29;2.73;;;1.57;;
6902;SDS011;20232;49.408;8.702;2023-09-19T13:54:55;2.93;;;1.40;;
6902;SDS011;20232;49.408;8.702;2023-09-19T13:57:30;2.50;;;1.50;;
6902;SDS011;20232;49.408;8.702;2023-09-19T13:59:58;3.00;;;1.43;;
6902;SDS011;20232;49.408;8.702;2023-09-19T14:02:24;3.63;;;1.73;;
6902;SDS011;20232;49.408;8.702;2023-09-19T14:04:49;1.97;;;1.50;;
6902;SDS011;20232;49.408;8.702;2023-09-19T14:07:15;6.43;;;1.93;;
6902;SDS011;20232;49.408;8.702;2023-09-19T14:09:43;3.03;;;1.50;;
6902;SDS011;20232;49.408;8.702;2023-09-19T14:12:08;2.37;;;1.60;;
6902;SDS011;20232;49.408;8.702;2023-09-19T14:14:34;2.50;;;1.57;;
6902;SDS011;20232;49.408;8.702;2023-09-19T14:16:59;1.53;;;1.30;;
6902;SDS011;20232;49.408;8.702;2023-09-19T14:19:29;2.50;;;1.50;;
6902;SDS011;20232;49.408;8.702;2023-09-19T14:21:54;3.57;;;1.60;;
6902;SDS011;20232;49.408;8.702;2023-09-19T14:24:22;2.43;;;1.43;;
6902;SDS011;20232;49.408;8.702;2023-09-19T14:26:48;3.03;;;1.47;;
6902;SDS011;20232;49.408;8.702;2023-09-19T14:29:14;3.57;;;1.30;;
6902;SDS011;20232;49.408;8.702;2023-09-19T14:31:40;2.77;;;1.27;;
6902;SDS011;20232;49.408;8.702;2023-09-19T14:34:06;2.73;;;1.10;;
6902;SDS011;20232;49.408;8.702;2023-09-19T14:36:32;1.70;;;1.30;;
6902;SDS011;20232;49.408;8.702;2023-09-19T14:38:58;2.53;;;1.43;;
6902;SDS011;20232;49.408;8.702;2023-09-19T14:41:24;2.20;;;1.50;;
6902;SDS011;20232;49.408;8.702;2023-09-19T14:43:53;1.50;;;1.20;;
6902;SDS011;20232;49.408;8.702;2023-09-19T14:46:20;3.80;;;1.30;;
6902;SDS011;20232;49.408;8.702;2023-09-19T14:48:46;1.50;;;1.20;;
6902;SDS011;20232;49.408;8.702;2023-09-19T14:51:14;2.90;;;1.17;;
6902;SDS011;20232;49.408;8.702;2023-09-19T14:53:40;2.97;;;1.40;;
6902;SDS011;20232;49.408;8.702;2023-09-19T14:56:09;3.87;;;1.30;;
6902;SDS011;20232;49.408;8.702;2023-09-19T14:58:35;1.87;;;1.30;;
6902;SDS011;20232;49.408;8.702;2023-09-19T15:01:05;3.33;;;1.33;;
6902;SDS011;20232;49.408;8.702;2023-09-19T15:03:35;3.70;;;1.27;;
6902;SDS011;20232;49.408;8.702;2023-09-19T15:06:05;3.87;;;1.40;;
6902;SDS011;20232;49.408;8.702;2023-09-19T15:08:35;2.93;;;1.20;;
6902;SDS011;20232;49.408;8.702;2023-09-19T15:11:06;4.17;;;1.30;;
6902;SDS011;20232;49.408;8.702;2023-09-19T15:13:35;2.73;;;1.57;;
6902;SDS011;20232;49.408;8.702;2023-09-19T15:16:01;2.83;;;1.60;;
6902;SDS011;20232;49.408;8.702;2023-09-19T15:18:34;2.60;;;1.30;;
6902;SDS011;20232;49.408;8.702;2023-09-19T15:21:03;3.40;;;1.57;;
6902;SDS011;20232;49.408;8.702;2023-09-19T15:23:32;2.57;;;1.40;;
6902;SDS011;20232;49.408;8.702;2023-09-19T15:26:17;2.10;;;1.37;;
6902;SDS011;20232;49.408;8.702;2023-09-19T15:28:45;3.47;;;1.40;;
6902;SDS011;20232;49.408;8.702;2023-09-19T15:31:11;2.43;;;1.40;;
6902;SDS011;20232;49.408;8.702;2023-09-19T15:33:37;3.83;;;1.40;;
6902;SDS011;20232;49.408;8.702;2023-09-19T15:36:04;3.47;;;1.40;;
6902;SDS011;20232;49.408;8.702;2023-09-19T15:38:30;2.53;;;1.50;;
6902;SDS011;20232;49.408;8.702;2023-09-19T15:40:57;1.50;;;1.40;;
6902;SDS011;20232;49.408;8.702;2023-09-19T15:43:25;4.73;;;1.50;;
6902;SDS011;20232;49.408;8.702;2023-09-19T15:45:50;7.90;;;3.40;;
6902;SDS011;20232;49.408;8.702;2023-09-19T15:48:16;2.33;;;1.50;;
6902;SDS011;20232;49.408;8.702;2023-09-19T15:50:43;4.87;;;1.70;;
6902;SDS011;20232;49.408;8.702;2023-09-19T15:53:09;3.23;;;1.80;;
6902;SDS011;20232;49.408;8.702;2023-09-19T15:55:38;2.87;;;1.30;;
6902;SDS011;20232;49.408;8.702;2023-09-19T15:58:08;2.27;;;1.60;;
6902;SDS011;20232;49.408;8.702;2023-09-19T16:00:33;2.70;;;1.70;;
6902;SDS011;20232;49.408;8.702;2023-09-19T16:03:02;3.20;;;1.87;;
6902;SDS011;20232;49.408;8.702;2023-09-19T16:05:28;2.40;;;1.43;;
6902;SDS011;20232;49.408;8.702;2023-09-19T16:07:53;1.40;;;1.30;;
6902;SDS011;20232;49.408;8.702;2023-09-19T16:10:19;2.80;;;1.60;;
6902;SDS011;20232;49.408;8.702;2023-09-19T16:12:45;2.10;;;1.30;;
6902;SDS011;20232;49.408;8.702;2023-09-19T16:15:11;2.90;;;1.30;;
6902;SDS011;20232;49.408;8.702;2023-09-19T16:17:37;2.90;;;1.30;;
6902;SDS011;20232;49.408;8.702;2023-09-19T16:20:02;3.57;;;1.10;;
6902;SDS011;20232;49.408;8.702;2023-09-19T16:22:28;2.23;;;1.40;;
6902;SDS011;20232;49.408;8.702;2023-09-19T16:24:53;1.63;;;1.40;;
6902;SDS011;20232;49.408;8.702;2023-09-19T16:27:19;2.50;;;1.50;;
6902;SDS011;20232;49.408;8.702;2023-09-19T16:29:46;2.63;;;1.53;;
6902;SDS011;20232;49.408;8.702;2023-09-19T16:32:13;2.53;;;1.40;;
6902;SDS011;20232;49.408;8.702;2023-09-19T16:34:39;3.70;;;1.60;;
6902;SDS011;20232;49.408;8.702;2023-09-19T16:37:06;1.73;;;1.20;;
6902;SDS011;20232;49.408;8.702;2023-09-19T16:39:31;2.17;;;1.30;;
6902;SDS011;20232;49.408;8.702;2023-09-19T16:41:57;2.63;;;1.30;;
6902;SDS011;20232;49.408;8.702;2023-09-19T16:44:22;2.03;;;1.60;;
6902;SDS011;20232;49.408;8.702;2023-09-19T16:46:48;3.23;;;1.50;;
6902;SDS011;20232;49.408;8.702;2023-09-19T16:49:13;3.23;;;1.40;;
6902;SDS011;20232;49.408;8.702;2023-09-19T16:51:39;4.20;;;1.30;;
6902;SDS011;20232;49.408;8.702;2023-09-19T16:54:06;2.80;;;1.40;;
6902;SDS011;20232;49.408;8.702;2023-09-19T16:56:32;2.00;;;1.60;;
6902;SDS011;20232;49.408;8.702;2023-09-19T16:59:01;3.10;;;1.40;;
6902;SDS011;20232;49.408;8.702;2023-09-19T17:01:29;1.87;;;1.40;;
6902;SDS011;20232;49.408;8.702;2023-09-19T17:03:57;1.93;;;1.30;;
6902;SDS011;20232;49.408;8.702;2023-09-19T17:06:23;2.40;;;1.37;;
6902;SDS011;20232;49.408;8.702;2023-09-19T17:08:50;2.20;;;1.40;;
6902;SDS011;20232;49.408;8.702;2023-09-19T17:11:16;2.13;;;1.30;;
6902;SDS011;20232;49.408;8.702;2023-09-19T17:13:42;3.10;;;1.57;;
6902;SDS011;20232;49.408;8.702;2023-09-19T17:16:14;4.13;;;1.37;;
6902;SDS011;20232;49.408;8.702;2023-09-19T17:18:45;1.97;;;1.50;;
6902;SDS011;20232;49.408;8.702;2023-09-19T17:21:12;3.33;;;1.40;;
6902;SDS011;20232;49.408;8.702;2023-09-19T17:23:39;2.27;;;1.70;;
6902;SDS011;20232;49.408;8.702;2023-09-19T17:26:06;2.57;;;1.60;;
6902;SDS011;20232;49.408;8.702;2023-09-19T17:28:37;2.17;;;1.50;;
6902;SDS011;20232;49.408;8.702;2023-09-19T17:31:10;3.73;;;1.60;;
6902;SDS011;20232;49.408;8.702;2023-09-19T17:33:37;3.50;;;1.43;;
6902;SDS011;20232;49.408;8.702;2023-09-19T17:38:38;2.30;;;1.97;;
6902;SDS011;20232;49.408;8.702;2023-09-19T17:41:04;1.93;;;1.53;;
6902;SDS011;20232;49.408;8.702;2023-09-19T17:43:31;2.63;;;1.90;;
6902;SDS011;20232;49.408;8.702;2023-09-19T17:45:57;4.03;;;2.20;;
6902;SDS011;20232;49.408;8.702;2023-09-19T17:48:30;5.80;;;2.87;;
6902;SDS011;20232;49.408;8.702;2023-09-19T17:51:00;3.00;;;1.70;;
6902;SDS011;20232;49.408;8.702;2023-09-19T17:53:26;1.47;;;1.37;;
6902;SDS011;20232;49.408;8.702;2023-09-19T17:55:52;1.47;;;1.37;;
6902;SDS011;20232;49.408;8.702;2023-09-19T17:58:17;3.50;;;1.60;;
6902;SDS011;20232;49.408;8.702;2023-09-19T18:00:43;4.70;;;1.80;;
6902;SDS011;20232;49.408;8.702;2023-09-19T18:03:10;3.03;;;1.70;;
6902;SDS011;20232;49.408;8.702;2023-09-19T18:05:35;1.30;;;1.20;;
6902;SDS011;20232;49.408;8.702;2023-09-19T18:08:01;3.73;;;1.73;;
6902;SDS011;20232;49.408;8.702;2023-09-19T18:10:26;3.17;;;1.60;;
6902;SDS011;20232;49.408;8.702;2023-09-19T18:12:53;2.33;;;1.50;;
6902;SDS011;20232;49.408;8.702;2023-09-19T18:15:19;1.93;;;1.60;;
6902;SDS011;20232;49.408;8.702;2023-09-19T18:17:44;2.40;;;1.60;;
6902;SDS011;20232;49.408;8.702;2023-09-19T18:20:10;2.67;;;1.60;;
6902;SDS011;20232;49.408;8.702;2023-09-19T18:22:36;1.50;;;1.40;;
6902;SDS011;20232;49.408;8.702;2023-09-19T18:25:01;2.67;;;1.50;;
6902;SDS011;20232;49.408;8.702;2023-09-19T18:27:27;2.50;;;1.40;;
6902;SDS011;20232;49.408;8.702;2023-09-19T18:29:56;2.30;;;1.60;;
6902;SDS011;20232;49.408;8.702;2023-09-19T18:32:21;2.60;;;1.67;;
6902;SDS011;20232;49.408;8.702;2023-09-19T18:34:47;1.50;;;1.40;;
6902;SDS011;20232;49.408;8.702;2023-09-19T18:37:12;1.73;;;1.60;;
6902;SDS011;20232;49.408;8.702;2023-09-19T18:39:39;2.30;;;1.67;;
6902;SDS011;20232;49.408;8.702;2023-09-19T18:42:04;2.70;;;1.57;;
6902;SDS011;20232;49.408;8.702;2023-09-19T18:44:29;1.97;;;1.77;;
6902;SDS011;20232;49.408;8.702;2023-09-19T18:46:55;2.60;;;1.47;;
6902;SDS011;20232;49.408;8.702;2023-09-19T18:49:21;1.60;;;1.50;;
6902;SDS011;20232;49.408;8.702;2023-09-19T18:51:47;4.47;;;1.53;;
6902;SDS011;20232;49.408;8.702;2023-09-19T18:54:13;2.00;;;1.60;;
6902;SDS011;20232;49.408;8.702;2023-09-19T18:56:39;2.30;;;1.40;;
6902;SDS011;20232;49.408;8.702;2023-09-19T18:59:06;1.90;;;1.70;;
6902;SDS011;20232;49.408;8.702;2023-09-19T19:01:32;4.10;;;1.60;;
6902;SDS011;20232;49.408;8.702;2023-09-19T19:03:58;2.80;;;1.70;;
6902;SDS011;20232;49.408;8.702;2023-09-19T19:06:24;5.17;;;1.77;;
6902;SDS011;20232;49.408;8.702;2023-09-19T19:08:49;2.33;;;1.90;;
6902;SDS011;20232;49.408;8.702;2023-09-19T19:11:16;1.63;;;1.50;;
6902;SDS011;20232;49.408;8.702;2023-09-19T19:13:43;2.10;;;1.77;;
6902;SDS011;20232;49.408;8.702;2023-09-19T19:16:11;4.90;;;2.40;;
6902;SDS011;20232;49.408;8.702;2023-09-19T19:18:38;2.57;;;1.60;;
6902;SDS011;20232;49.408;8.702;2023-09-19T19:21:05;2.77;;;1.73;;
6902;SDS011;20232;49.408;8.702;2023-09-19T19:23:36;2.70;;;1.70;;
6902;SDS011;20232;49.408;8.702;2023-09-19T19:26:02;7.93;;;5.13;;
6902;SDS011;20232;49.408;8.702;2023-09-19T19:28:32;4.23;;;2.00;;
6902;SDS011;20232;49.408;8.702;2023-09-19T19:30:57;2.20;;;1.70;;
6902;SDS011;20232;49.408;8.702;2023-09-19T19:33:23;7.70;;;1.80;;
6902;SDS011;20232;49.408;8.702;2023-09-19T19:35:49;3.20;;;1.80;;
6902;SDS011;20232;49.408;8.702;2023-09-19T19:38:15;2.57;;;1.77;;